Time;durP1;ratioP1;P1;durP2;ratioP2;P2;SDS_P1;SDS_P2;PMS_P1;PMS_P2;Temp;Humidity;BMP_temperature;BMP_pressure;BME280_temperature;BME280_humidity;BME280_pressure;Samples;Min_cycle;Max_cycle;Signal;HPM_P1;HPM_P2
2022/06/03 00:01:16;;;;;;;;;;;;;;;15.31;52.49;101277.94;7362114;19;19915;-60
2022/06/03 00:03:52;;;;;;;;;;;;;;;15.33;52.56;101275.25;7363071;19;20364;-60
2022/06/03 00:06:36;;;;;;;;;;;;;;;15.34;52.30;101270.84;7362323;19;19919;-60
2022/06/03 00:09:06;;;;;;;;;;;;;;;15.35;52.45;101272.56;7362604;19;19936;-60
2022/06/03 00:11:38;;;;;;;;;;;;;;;15.36;52.45;101274.28;7359257;19;19930;-61
2022/06/03 00:14:23;;;;;;;;;;;;;;;15.36;52.25;101277.81;7359144;19;20478;-61
2022/06/03 00:16:57;;;;;;;;;;;;;;;15.36;52.71;101269.91;7362132;19;19926;-60
2022/06/03 00:19:22;;;;;;;;;;;;;;;15.36;52.30;101275.16;7361223;19;19948;-60
2022/06/03 00:22:06;;;;;;;;;;;;;;;15.36;52.73;101267.28;7361574;19;19943;-60
2022/06/03 00:24:38;;;;;;;;;;;;;;;15.37;52.58;101262.88;7360207;19;19926;-60
2022/06/03 00:27:12;;;;;;;;;;;;;;;15.37;52.73;101276.03;7363982;19;20431;-60
2022/06/03 00:29:40;;;;;;;;;;;;;;;15.37;52.38;101270.75;7361221;19;19927;-61
2022/06/03 00:32:24;;;;;;;;;;;;;;;15.38;52.60;101272.47;7360506;19;19927;-60
2022/06/03 00:35:12;;;;;;;;;;;;;;;15.37;52.75;101276.03;7361805;19;19915;-60
2022/06/03 00:37:54;;;;;;;;;;;;;;;15.38;52.54;101273.34;7360374;19;19919;-60
2022/06/03 00:40:19;;;;;;;;;;;;;;;15.39;52.78;101275.03;7360411;19;19939;-60
2022/06/03 00:42:48;;;;;;;;;;;;;;;15.39;52.49;101274.19;7360830;19;21188;-61
2022/06/03 00:45:13;;;;;;;;;;;;;;;15.39;52.90;101274.19;7361050;19;19926;-60
2022/06/03 00:47:41;;;;;;;;;;;;;;;15.40;52.91;101273.28;7361374;19;21242;-60
2022/06/03 00:50:25;;;;;;;;;;;;;;;15.40;52.78;101279.41;7361236;19;19910;-60
2022/06/03 00:52:50;;;;;;;;;;;;;;;15.40;53.05;101270.63;7361916;19;19919;-60
2022/06/03 00:55:34;;;;;;;;;;;;;;;15.41;53.03;101269.72;7360776;19;20471;-60
2022/06/03 00:58:18;;;;;;;;;;;;;;;15.42;52.93;101276.72;7362915;19;19918;-61
2022/06/03 01:00:56;;;;;;;;;;;;;;;15.41;52.85;101273.25;7360446;19;19919;-60
2022/06/03 01:03:21;;;;;;;;;;;;;;;15.42;52.76;101274.09;7360104;19;19982;-60
2022/06/03 01:05:49;;;;;;;;;;;;;;;15.42;52.93;101274.97;7358761;19;20012;-60
2022/06/03 01:08:15;;;;;;;;;;;;;;;15.42;52.99;101280.22;7358921;19;19938;-60
2022/06/03 01:10:58;;;;;;;;;;;;;;;15.43;52.92;101281.06;7362426;19;20625;-60
2022/06/03 01:13:24;;;;;;;;;;;;;;;15.43;53.11;101278.44;7363525;19;19933;-61
2022/06/03 01:15:49;;;;;;;;;;;;;;;15.43;53.14;101276.66;7368690;19;19990;-61
2022/06/03 01:18:17;;;;;;;;;;;;;;;15.44;53.18;101277.53;7367490;19;19915;-60
2022/06/03 01:21:04;;;;;;;;;;;;;;;15.44;52.90;101278.38;7365005;19;19939;-59
2022/06/03 01:23:29;;;;;;;;;;;;;;;15.44;53.24;101273.13;7366438;19;20502;-60
2022/06/03 01:26:03;;;;;;;;;;;;;;;15.46;53.29;101275.69;7365816;19;20018;-60
2022/06/03 01:28:34;;;;;;;;;;;;;;;15.44;52.95;101274.91;7367374;19;19923;-59
2022/06/03 01:31:15;;;;;;;;;;;;;;;15.46;52.96;101270.44;7364803;19;19918;-60
2022/06/03 01:33:49;;;;;;;;;;;;;;;15.45;53.04;101273.97;7366222;19;19921;-60
2022/06/03 01:36:17;;;;;;;;;;;;;;;15.45;52.74;101279.25;7364933;19;19989;-60
2022/06/03 01:38:45;;;;;;;;;;;;;;;15.44;53.07;101272.25;7363018;19;19943;-60
2022/06/03 01:41:25;;;;;;;;;;;;;;;15.44;52.78;101272.25;7367844;19;19927;-61
2022/06/03 01:44:00;;;;;;;;;;;;;;;15.43;53.13;101281.94;7366786;19;20022;-60
2022/06/03 01:46:32;;;;;;;;;;;;;;;15.43;53.31;101275.81;7367752;19;19931;-60
2022/06/03 01:48:58;;;;;;;;;;;;;;;15.42;52.85;101276.72;7366645;19;20479;-60
2022/06/03 01:51:38;;;;;;;;;;;;;;;15.42;53.31;101274.09;7366896;19;19927;-60
2022/06/03 01:54:24;;;;;;;;;;;;;;;15.42;53.02;101274.09;7365301;19;19953;-60
2022/06/03 01:57:08;;;;;;;;;;;;;;;15.41;53.19;101267.97;7365238;19;19929;-60
2022/06/03 01:59:45;;;;;;;;;;;;;;;15.41;53.09;101269.72;7357738;19;19962;-59
2022/06/03 02:02:29;;;;;;;;;;;;;;;15.41;53.48;101264.47;7366314;19;19922;-60
2022/06/03 02:05:12;;;;;;;;;;;;;;;15.40;53.40;101260.13;7365541;19;20252;-60
2022/06/03 02:07:48;;;;;;;;;;;;;;;15.41;53.26;101269.72;7366583;19;19926;-60
2022/06/03 02:10:32;;;;;;;;;;;;;;;15.40;53.24;101265.38;7365772;19;19924;-60
2022/06/03 02:13:14;;;;;;;;;;;;;;;15.39;53.27;101266.28;7362789;19;19915;-60
2022/06/03 02:15:42;;;;;;;;;;;;;;;15.39;53.53;101268.94;7366775;19;19956;-60
2022/06/03 02:18:10;;;;;;;;;;;;;;;15.37;53.40;101268.13;7362812;19;19929;-60
2022/06/03 02:20:36;;;;;;;;;;;;;;;15.36;53.66;101264.66;7363579;19;19947;-61
2022/06/03 02:23:19;;;;;;;;;;;;;;;15.35;53.56;101262.91;7363933;19;19929;-60
2022/06/03 02:26:03;;;;;;;;;;;;;;;15.35;53.50;101268.16;7363181;19;19925;-60
2022/06/03 02:28:47;;;;;;;;;;;;;;;15.35;53.58;101267.31;7363635;19;20342;-60
2022/06/03 02:31:18;;;;;;;;;;;;;;;15.35;53.49;101273.41;7365171;19;19925;-60
2022/06/03 02:33:43;;;;;;;;;;;;;;;15.34;53.55;101270.84;7363231;19;19918;-60
2022/06/03 02:36:11;;;;;;;;;;;;;;;15.35;53.32;101272.56;7360873;19;20453;-61
2022/06/03 02:38:54;;;;;;;;;;;;;;;15.35;53.65;101275.19;7365876;19;19925;-60
2022/06/03 02:41:22;;;;;;;;;;;;;;;15.35;53.41;101276.06;7365431;19;20404;-60
2022/06/03 02:44:09;;;;;;;;;;;;;;;15.35;53.72;101280.47;7364388;19;19930;-60
2022/06/03 02:46:53;;;;;;;;;;;;;;;15.29;53.40;101269.22;7362746;19;19998;-60
2022/06/03 02:49:37;;;;;;;;;;;;;;;15.34;53.09;101276.13;7366173;19;19927;-60
2022/06/03 02:52:15;;;;;;;;;;;;;;;15.30;53.27;101278.84;7362929;19;20659;-60
2022/06/03 02:55:04;;;;;;;;;;;;;;;15.27;53.62;101270.22;7367221;19;19919;-60
2022/06/03 02:57:48;;;;;;;;;;;;;;;15.25;52.61;101278.13;7365402;19;19959;-60
2022/06/03 03:00:23;;;;;;;;;;;;;;;15.23;52.86;101276.47;7363806;19;19939;-61
2022/06/03 03:02:57;;;;;;;;;;;;;;;15.20;53.43;101274.78;7364577;19;19927;-60
2022/06/03 03:05:48;;;;;;;;;;;;;;;15.18;53.38;101267.88;7352253;19;19922;-60
2022/06/03 03:08:17;;;;;;;;;;;;;;;15.16;53.73;101274.97;7264045;19;2004434;-60
2022/06/03 03:10:49;;;;;;;;;;;;;;;15.13;53.56;101270.66;7363772;19;20988;-60
2022/06/03 03:13:19;;;;;;;;;;;;;;;15.12;53.44;101282.09;7365534;19;19943;-60
2022/06/03 03:16:03;;;;;;;;;;;;;;;15.11;53.70;101277.75;7363656;19;19921;-60
2022/06/03 03:18:34;;;;;;;;;;;;;;;15.10;53.43;101277.78;7355517;19;19948;-60
2022/06/03 03:21:02;;;;;;;;;;;;;;;15.08;53.80;101280.47;7365868;19;19917;-59
2022/06/03 03:23:49;;;;;;;;;;;;;;;15.08;53.30;101282.22;7364238;19;19946;-60
2022/06/03 03:26:33;;;;;;;;;;;;;;;15.05;53.74;101278.81;7365594;19;20648;-60
2022/06/03 03:29:01;;;;;;;;;;;;;;;15.04;53.52;101287.56;7365732;19;20332;-60
2022/06/03 03:31:36;;;;;;;;;;;;;;;15.01;54.03;101285.06;7366161;19;20387;-60
2022/06/03 03:34:09;;;;;;;;;;;;;;;15.01;53.48;101284.22;7364631;19;20331;-61
2022/06/03 03:36:35;;;;;;;;;;;;;;;14.99;53.74;101283.38;7366480;19;19921;-60
2022/06/03 03:39:18;;;;;;;;;;;;;;;14.97;53.79;101282.56;7367832;19;19926;-60
2022/06/03 03:42:03;;;;;;;;;;;;;;;14.96;53.63;101283.50;7364471;19;19918;-60
2022/06/03 03:44:48;;;;;;;;;;;;;;;14.93;53.86;101280.94;7364834;19;19982;-60
2022/06/03 03:47:32;;;;;;;;;;;;;;;14.91;53.65;101288.03;7365991;19;19914;-60
2022/06/03 03:50:09;;;;;;;;;;;;;;;14.91;54.09;101282.78;7365114;19;19922;-60
2022/06/03 03:52:40;;;;;;;;;;;;;;;14.89;53.80;101284.56;7365989;19;20006;-60
2022/06/03 03:55:08;;;;;;;;;;;;;;;14.87;53.91;101278.50;7366416;19;20331;-61
2022/06/03 03:57:43;;;;;;;;;;;;;;;14.85;54.19;101278.56;7366882;19;20328;-60
2022/06/03 04:00:27;;;;;;;;;;;;;;;14.85;54.34;101278.56;7364208;19;19929;-60
2022/06/03 04:02:55;;;;;;;;;;;;;;;14.85;54.37;101282.94;7366153;19;19997;-61
2022/06/03 04:05:39;;;;;;;;;;;;;;;14.82;54.02;101278.66;7364282;19;19933;-60
2022/06/03 04:08:22;;;;;;;;;;;;;;;14.81;54.56;101282.19;7365149;19;19927;-60
2022/06/03 04:11:17;;;;;;;;;;;;;;;14.79;54.45;101274.34;7364358;19;19953;-60
2022/06/03 04:13:57;;;;;;;;;;;;;;;14.78;54.47;101275.25;7264171;19;2005024;-60
2022/06/03 04:16:42;;;;;;;;;;;;;;;14.78;54.40;101275.25;7370033;19;20453;-60
2022/06/03 04:19:19;;;;;;;;;;;;;;;14.76;54.25;101263.94;7363460;19;20581;-60
2022/06/03 04:21:59;;;;;;;;;;;;;;;14.76;54.63;101269.19;7367150;19;19925;-60
2022/06/03 04:24:33;;;;;;;;;;;;;;;14.76;54.75;101269.19;7365837;19;19919;-60
2022/06/03 04:27:17;;;;;;;;;;;;;;;14.76;54.30;101269.19;7364705;19;19922;-60
2022/06/03 04:29:58;;;;;;;;;;;;;;;14.75;54.79;101267.47;7366358;19;20788;-61
2022/06/03 04:32:42;;;;;;;;;;;;;;;14.76;54.64;101269.19;7365873;19;19926;-60
2022/06/03 04:35:27;;;;;;;;;;;;;;;14.76;54.45;101269.19;7365601;19;19947;-60
2022/06/03 04:38:11;;;;;;;;;;;;;;;14.76;54.76;101271.81;7366845;19;19911;-60
2022/06/03 04:40:51;;;;;;;;;;;;;;;14.76;54.52;101269.19;7365635;19;20415;-61
2022/06/03 04:43:25;;;;;;;;;;;;;;;14.76;54.49;101273.59;7364007;19;19926;-60
2022/06/03 04:46:19;;;;;;;;;;;;;;;14.76;54.60;101265.72;7362461;19;19926;-61
2022/06/03 04:49:23;;;;;;;;;;;;;;;14.74;54.57;101265.72;7264701;19;2004606;-60
2022/06/03 04:52:20;;;;;;;;;;;;;;;14.75;54.52;101261.31;7257255;19;2004286;-61
2022/06/03 04:55:07;;;;;;;;;;;;;;;14.74;54.80;101268.34;7258405;19;2004436;-61
2022/06/03 04:57:44;;;;;;;;;;;;;;;14.74;54.57;101268.34;7263316;19;2004334;-59
2022/06/03 05:00:28;;;;;;;;;;;;;;;14.74;54.37;101263.09;7364503;19;19918;-61
2022/06/03 05:03:08;;;;;;;;;;;;;;;14.75;54.23;101270.09;7364923;19;20665;-60
2022/06/03 05:05:52;;;;;;;;;;;;;;;14.77;54.50;101272.69;7362160;19;19945;-60
2022/06/03 05:08:23;;;;;;;;;;;;;;;14.76;54.54;101263.94;7363608;19;19930;-60
2022/06/03 05:10:48;;;;;;;;;;;;;;;14.78;54.66;101264.72;7363705;19;19926;-61
2022/06/03 05:13:13;;;;;;;;;;;;;;;14.79;54.56;101274.34;7363113;19;20629;-61
2022/06/03 05:15:57;;;;;;;;;;;;;;;14.80;54.52;101269.97;7364891;19;19922;-60
2022/06/03 05:18:42;;;;;;;;;;;;;;;14.82;54.49;101267.28;7364795;19;19942;-61
2022/06/03 05:21:07;;;;;;;;;;;;;;;14.84;54.53;101265.44;7363989;19;19926;-60
2022/06/03 05:23:33;;;;;;;;;;;;;;;14.85;54.84;101267.16;7363333;19;19929;-60
2022/06/03 05:26:13;;;;;;;;;;;;;;;14.87;55.01;101274.13;7363143;19;19951;-60
2022/06/03 05:28:47;;;;;;;;;;;;;;;14.89;54.58;101274.06;7364568;19;19923;-60
2022/06/03 05:31:13;;;;;;;;;;;;;;;14.92;54.89;101271.34;7362052;19;19921;-60
2022/06/03 05:33:47;;;;;;;;;;;;;;;14.92;55.00;101272.19;7364963;19;19914;-60
2022/06/03 05:36:31;;;;;;;;;;;;;;;14.95;54.87;101273.84;7365071;19;20359;-60
2022/06/03 05:39:15;;;;;;;;;;;;;;;14.97;54.51;101272.06;7361947;19;19995;-60
2022/06/03 05:45:20;;;;;;;;;;;;;;;15.01;54.76;101268.44;7155084;19;2004934;-60
2022/06/03 05:47:49;;;;;;;;;;;;;;;15.03;54.88;101266.59;7363037;19;19926;-60
2022/06/03 05:50:14;;;;;;;;;;;;;;;15.06;54.87;101266.50;7360788;19;19951;-60
2022/06/03 05:53:02;;;;;;;;;;;;;;;15.07;54.77;101262.97;7363273;19;19919;-60
2022/06/03 05:55:27;;;;;;;;;;;;;;;15.10;54.11;101268.09;7362479;19;19929;-61
2022/06/03 05:57:56;;;;;;;;;;;;;;;15.13;54.09;101269.78;7361616;19;20883;-60
2022/06/03 06:00:30;;;;;;;;;;;;;;;15.13;54.19;101273.28;7367438;19;19930;-60
2022/06/03 06:03:07;;;;;;;;;;;;;;;15.14;54.28;101280.25;7366886;19;19926;-61
2022/06/03 06:05:39;;;;;;;;;;;;;;;15.16;54.33;101272.34;7370324;19;20848;-60
2022/06/03 06:08:23;;;;;;;;;;;;;;;15.17;54.78;101282.81;7368019;19;19923;-60
2022/06/03 06:10:48;;;;;;;;;;;;;;;15.18;54.69;101275.75;7368277;19;20000;-60
2022/06/03 06:13:25;;;;;;;;;;;;;;;15.19;54.42;101278.34;7367323;19;19919;-60
2022/06/03 06:16:09;;;;;;;;;;;;;;;15.20;54.82;101276.56;7366075;19;19915;-60
2022/06/03 06:18:49;;;;;;;;;;;;;;;15.21;54.40;101276.53;7368206;19;19922;-60
2022/06/03 06:21:17;;;;;;;;;;;;;;;15.22;54.51;101283.50;7363921;19;20576;-60
2022/06/03 06:23:44;;;;;;;;;;;;;;;15.24;54.45;101280.81;7365823;19;20038;-60
2022/06/03 06:26:28;;;;;;;;;;;;;;;15.27;54.45;101286.00;7365757;19;19932;-60
2022/06/03 06:29:14;;;;;;;;;;;;;;;15.29;54.51;101285.03;7368421;19;20343;-60
2022/06/03 06:31:58;;;;;;;;;;;;;;;15.34;54.88;101286.66;7365347;19;20387;-60
2022/06/03 06:34:37;;;;;;;;;;;;;;;15.35;54.95;101285.72;7366650;19;20002;-61
2022/06/03 06:37:31;;;;;;;;;;;;;;;15.39;54.62;101285.56;7365708;19;20667;-61
2022/06/03 06:40:02;;;;;;;;;;;;;;;15.43;54.78;101292.47;7260192;19;2004346;-61
2022/06/03 06:42:41;;;;;;;;;;;;;;;15.47;54.99;101282.69;7367663;19;19925;-60
2022/06/03 06:45:24;;;;;;;;;;;;;;;15.51;54.45;101300.09;7366142;19;19925;-60
2022/06/03 06:47:49;;;;;;;;;;;;;;;15.55;54.47;101299.06;7365817;19;19954;-60
2022/06/03 06:50:14;;;;;;;;;;;;;;;15.56;54.46;101304.31;7368168;19;22024;-60
2022/06/03 06:52:50;;;;;;;;;;;;;;;15.60;54.67;101305.03;7366667;19;19922;-61
2022/06/03 06:55:20;;;;;;;;;;;;;;;15.64;55.12;101298.81;7366111;19;19919;-60
2022/06/03 06:57:47;;;;;;;;;;;;;;;15.67;55.02;101309.25;7365984;19;19926;-61
2022/06/03 07:00:19;;;;;;;;;;;;;;;15.71;54.64;101310.88;7365048;19;20730;-60
2022/06/03 07:02:50;;;;;;;;;;;;;;;15.75;55.08;101314.22;7364518;19;19918;-61
2022/06/03 07:05:24;;;;;;;;;;;;;;;15.79;54.57;101324.63;7362474;19;20322;-60
2022/06/03 07:07:51;;;;;;;;;;;;;;;15.81;55.01;101325.44;7365270;19;20345;-60
2022/06/03 07:10:27;;;;;;;;;;;;;;;15.86;54.91;101321.75;7363288;19;20363;-61
2022/06/03 07:13:12;;;;;;;;;;;;;;;15.90;55.03;101328.66;7366662;19;19923;-61
2022/06/03 07:15:52;;;;;;;;;;;;;;;15.95;54.84;101327.56;7365703;19;19984;-60
2022/06/03 07:21:41;;;;;;;;;;;;;;;16.06;54.73;101330.69;7264377;19;2004413;-60
2022/06/03 07:24:14;;;;;;;;;;;;;;;16.12;54.99;101334.00;7362252;19;19929;-60
2022/06/03 07:26:43;;;;;;;;;;;;;;;16.16;55.02;101341.75;7367357;19;20343;-60
2022/06/03 07:29:12;;;;;;;;;;;;;;;16.22;54.62;101346.84;7363946;19;19921;-60
2022/06/03 07:31:50;;;;;;;;;;;;;;;16.28;54.60;101345.75;7367285;19;20713;-60
2022/06/03 07:34:22;;;;;;;;;;;;;;;16.35;54.89;101334.06;7366256;19;20311;-60
2022/06/03 07:36:48;;;;;;;;;;;;;;;16.43;54.80;101339.06;7365986;19;19934;-61
2022/06/03 07:39:23;;;;;;;;;;;;;;;16.51;54.68;101343.13;7361377;19;20434;-60
2022/06/03 07:41:52;;;;;;;;;;;;;;;16.59;54.60;101340.22;7364606;19;19914;-61
2022/06/03 07:44:22;;;;;;;;;;;;;;;16.67;54.95;101337.25;7364808;19;19930;-60
2022/06/03 07:46:52;;;;;;;;;;;;;;;16.74;54.34;101350.22;7366644;19;19930;-60
2022/06/03 07:49:18;;;;;;;;;;;;;;;16.80;54.40;101344.69;7360475;19;19929;-61
2022/06/03 07:51:46;;;;;;;;;;;;;;;16.86;54.46;101347.09;7367468;19;19922;-61
2022/06/03 07:54:14;;;;;;;;;;;;;;;16.94;54.81;101348.59;7363335;19;19951;-60
2022/06/03 07:56:40;;;;;;;;;;;;;;;16.97;54.41;101340.53;7364899;19;19931;-60
2022/06/03 07:59:07;;;;;;;;;;;;;;;17.03;54.46;101349.09;7364544;19;19990;-60
2022/06/03 08:01:38;;;;;;;;;;;;;;;17.09;54.14;101355.91;7365302;19;19922;-61
2022/06/03 08:04:07;;;;;;;;;;;;;;;17.13;54.46;101352.19;7364693;19;20263;-60
2022/06/03 08:12:06;;;;;;;;;;;;;;;17.31;54.68;101361.19;7366923;19;19937;-61
2022/06/03 08:14:31;;;;;;;;;;;;;;;17.37;54.56;101361.78;7366872;19;20338;-60
2022/06/03 08:16:56;;;;;;;;;;;;;;;17.44;53.97;101356.28;7363726;19;19931;-60
2022/06/03 08:19:26;;;;;;;;;;;;;;;17.49;54.31;101362.22;7366409;19;19923;-61
2022/06/03 08:22:01;;;;;;;;;;;;;;;17.54;53.81;101365.53;7366766;19;19921;-61
2022/06/03 08:24:30;;;;;;;;;;;;;;;17.58;54.46;101365.31;7367834;19;20664;-60
2022/06/03 08:26:57;;;;;;;;;;;;;;;17.62;54.20;101368.72;7363696;19;20383;-61
2022/06/03 08:29:27;;;;;;;;;;;;;;;17.67;54.07;101374.66;7355928;19;19919;-60
2022/06/03 08:31:54;;;;;;;;;;;;;;;17.70;53.90;101374.53;7364470;19;19974;-61
2022/06/03 08:34:42;;;;;;;;;;;;;;;17.72;53.76;101367.41;7364961;19;19942;-60
2022/06/03 08:37:09;;;;;;;;;;;;;;;17.73;53.83;101371.78;7365997;19;20240;-60
2022/06/03 08:39:38;;;;;;;;;;;;;;;17.74;54.01;101368.25;7366288;19;19935;-60
2022/06/03 08:42:29;;;;;;;;;;;;;;;17.77;53.67;101370.75;7366065;19;20999;-61
2022/06/03 08:45:12;;;;;;;;;;;;;;;17.83;53.45;101370.47;7265998;19;2004406;-60
2022/06/03 08:47:58;;;;;;;;;;;;;;;17.88;54.01;101368.50;7365482;19;19946;-61
2022/06/03 08:50:29;;;;;;;;;;;;;;;17.97;54.36;101367.25;7365671;19;19939;-61
2022/06/03 08:53:00;;;;;;;;;;;;;;;18.05;54.31;101374.88;7366996;19;20314;-61
2022/06/03 08:55:37;;;;;;;;;;;;;;;18.15;53.87;101378.84;7364921;19;19958;-61
2022/06/03 08:58:21;;;;;;;;;;;;;;;18.24;54.33;101375.78;7364909;19;20838;-60
2022/06/03 09:00:48;;;;;;;;;;;;;;;18.32;54.21;101378.09;7366061;19;19925;-61
2022/06/03 09:03:15;;;;;;;;;;;;;;;18.39;54.16;101380.38;7365511;19;19953;-60
2022/06/03 09:05:47;;;;;;;;;;;;;;;18.47;54.00;101381.84;7365930;19;20265;-61
2022/06/03 09:08:19;;;;;;;;;;;;;;;18.53;53.86;101376.28;7358977;19;19922;-61
2022/06/03 09:10:55;;;;;;;;;;;;;;;18.56;53.57;101377.00;7364304;19;20423;-61
2022/06/03 09:13:20;;;;;;;;;;;;;;;18.60;53.82;101380.34;7365692;19;19922;-61
2022/06/03 09:15:46;;;;;;;;;;;;;;;18.63;53.51;101382.88;7364543;19;22229;-60
2022/06/03 09:18:25;;;;;;;;;;;;;;;18.67;53.80;101389.75;7365999;19;19926;-60
2022/06/03 09:20:59;;;;;;;;;;;;;;;18.69;53.83;101393.19;7361458;19;19935;-61
2022/06/03 09:23:26;;;;;;;;;;;;;;;18.73;53.58;101393.91;7366070;19;19929;-61
2022/06/03 09:25:57;;;;;;;;;;;;;;;18.74;53.14;101391.19;7364407;19;20343;-60
2022/06/03 09:28:31;;;;;;;;;;;;;;;18.75;52.75;101392.06;7365423;19;20018;-61
2022/06/03 09:30:57;;;;;;;;;;;;;;;18.74;53.42;101399.13;7362982;19;19918;-60
2022/06/03 09:33:25;;;;;;;;;;;;;;;18.72;53.37;101393.06;7371282;19;19938;-60
2022/06/03 09:35:51;;;;;;;;;;;;;;;18.69;53.51;101393.19;7370188;19;20362;-60
2022/06/03 09:38:19;;;;;;;;;;;;;;;18.68;52.94;101396.78;7368213;19;19930;-59
2022/06/03 09:40:46;;;;;;;;;;;;;;;18.66;52.84;101396.81;7369313;19;19914;-61
2022/06/03 09:43:23;;;;;;;;;;;;;;;18.68;53.39;101404.72;7372027;19;19926;-61
2022/06/03 09:45:52;;;;;;;;;;;;;;;18.74;53.67;101407.06;7369578;19;19923;-61
2022/06/03 09:48:20;;;;;;;;;;;;;;;18.82;53.14;101404.09;7370841;19;19918;-61
2022/06/03 09:50:47;;;;;;;;;;;;;;;18.90;53.03;101408.09;7368100;19;19947;-60
2022/06/03 09:53:16;;;;;;;;;;;;;;;19.00;53.10;101410.31;7371687;19;19915;-61
2022/06/03 09:55:47;;;;;;;;;;;;;;;19.11;53.33;101405.38;7370706;19;20590;-61
2022/06/03 09:58:18;;;;;;;;;;;;;;;19.23;52.93;101418.03;7370723;19;19942;-60
2022/06/03 10:00:45;;;;;;;;;;;;;;;19.32;53.11;101414.97;7370451;19;20387;-61
2022/06/03 10:03:11;;;;;;;;;;;;;;;19.38;52.54;101414.66;7370123;19;19927;-60
2022/06/03 10:05:37;;;;;;;;;;;;;;;19.43;52.63;101419.75;7370370;19;19930;-60
2022/06/03 10:08:04;;;;;;;;;;;;;;;19.48;53.03;101420.38;7369141;19;20114;-60
2022/06/03 10:13:14;;;;;;;;;;;;;;;19.59;52.42;101427.81;7368941;19;19943;-61
2022/06/03 10:15:44;;;;;;;;;;;;;;;19.63;52.72;101432.91;7370716;19;20336;-61
2022/06/03 10:18:28;;;;;;;;;;;;;;;19.70;52.29;101436.09;7370315;19;19922;-61
2022/06/03 10:20:56;;;;;;;;;;;;;;;19.78;52.06;101439.25;7369495;19;19919;-61
2022/06/03 10:23:22;;;;;;;;;;;;;;;19.84;52.45;101444.25;7371152;19;20947;-61
2022/06/03 10:25:49;;;;;;;;;;;;;;;19.89;51.87;101447.53;7369706;19;20036;-61
2022/06/03 10:28:15;;;;;;;;;;;;;;;19.95;51.79;101444.56;7369941;19;20427;-61
2022/06/03 10:30:41;;;;;;;;;;;;;;;20.01;51.73;101453.16;7370621;19;19943;-61
2022/06/03 10:33:16;;;;;;;;;;;;;;;20.03;52.06;101454.81;7368891;19;19941;-61
2022/06/03 10:35:42;;;;;;;;;;;;;;;20.09;51.83;101453.63;7368309;19;19935;-61
2022/06/03 10:38:08;;;;;;;;;;;;;;;20.16;51.85;101455.03;7368540;19;21835;-61
2022/06/03 10:40:33;;;;;;;;;;;;;;;20.22;52.03;101460.00;7369213;19;19910;-61
2022/06/03 10:43:00;;;;;;;;;;;;;;;20.27;51.36;101460.63;7367034;19;19933;-60
2022/06/03 10:45:29;;;;;;;;;;;;;;;20.32;51.30;101463.91;7367263;19;19914;-61
2022/06/03 10:47:55;;;;;;;;;;;;;;;20.36;51.92;101462.81;7369319;19;19953;-61
2022/06/03 10:50:23;;;;;;;;;;;;;;;20.39;51.41;101467.13;7369447;19;19911;-61
2022/06/03 11:01:25;;;;;;;;;;;;;;;20.53;50.87;101463.75;7369488;19;19930;-61
2022/06/03 11:03:52;;;;;;;;;;;;;;;20.59;51.28;101468.78;7367310;19;19915;-60
2022/06/03 11:06:22;;;;;;;;;;;;;;;20.65;51.08;101453.38;7370122;19;19998;-60
2022/06/03 11:08:58;;;;;;;;;;;;;;;20.76;51.42;101457.25;7368103;19;19927;-59
2022/06/03 11:11:30;;;;;;;;;;;;;;;20.88;51.47;101459.25;7367389;19;19918;-61
2022/06/03 11:13:56;;;;;;;;;;;;;;;21.05;51.38;101458.34;7364955;19;19917;-60
2022/06/03 11:16:22;;;;;;;;;;;;;;;21.21;51.28;101453.91;7369188;19;19922;-61
2022/06/03 11:18:47;;;;;;;;;;;;;;;21.38;51.10;101458.31;7368867;19;19974;-60
2022/06/03 11:21:24;;;;;;;;;;;;;;;21.55;50.79;101460.03;7367488;19;19922;-60
2022/06/03 11:23:50;;;;;;;;;;;;;;;21.73;50.91;101457.19;7365812;19;20684;-61
2022/06/03 11:26:16;;;;;;;;;;;;;;;21.88;50.56;101460.75;7368243;19;21985;-61
2022/06/03 11:28:47;;;;;;;;;;;;;;;22.01;50.47;101464.44;7369795;19;19927;-61
2022/06/03 11:31:21;;;;;;;;;;;;;;;22.15;50.04;101457.44;7367447;19;20537;-61
2022/06/03 11:33:56;;;;;;;;;;;;;;;22.30;50.26;101458.34;7367215;19;19918;-61
2022/06/03 11:36:28;;;;;;;;;;;;;;;22.44;49.89;101459.22;7367123;19;19915;-61
2022/06/03 11:39:06;;;;;;;;;;;;;;;22.62;49.64;101465.25;7368557;19;19922;-61
2022/06/03 11:41:34;;;;;;;;;;;;;;;22.91;49.70;101458.19;7367481;19;19931;-61
2022/06/03 11:44:00;;;;;;;;;;;;;;;23.33;49.57;101461.75;7368333;19;19918;-61
2022/06/03 11:46:47;;;;;;;;;;;;;;;23.83;50.29;101462.97;7368154;19;19917;-61
2022/06/03 11:49:16;;;;;;;;;;;;;;;24.38;49.63;101469.94;7368201;19;19923;-61
2022/06/03 11:51:41;;;;;;;;;;;;;;;24.81;49.48;101472.28;7366750;19;20407;-61
2022/06/03 11:54:10;;;;;;;;;;;;;;;25.29;48.91;101459.09;7367010;19;19925;-61
2022/06/03 11:56:36;;;;;;;;;;;;;;;25.78;48.58;101460.88;7361684;19;19922;-61
2022/06/03 11:59:04;;;;;;;;;;;;;;;26.23;47.69;101455.69;7366264;19;19915;-61
2022/06/03 12:01:34;;;;;;;;;;;;;;;26.64;47.31;101461.38;7367275;19;19947;-59
2022/06/03 12:04:16;;;;;;;;;;;;;;;27.03;47.31;101469.94;7364527;19;19961;-61
2022/06/03 12:06:48;;;;;;;;;;;;;;;27.34;46.23;101459.44;7369070;19;19950;-61
2022/06/03 12:09:16;;;;;;;;;;;;;;;27.60;45.84;101459.97;7367612;19;20861;-61
2022/06/03 12:14:40;;;;;;;;;;;;;;;28.38;45.68;101472.25;7259253;19;2004549;-61
2022/06/03 12:17:06;;;;;;;;;;;;;;;28.64;44.92;101468.19;7356982;19;19926;-61
2022/06/03 12:19:35;;;;;;;;;;;;;;;28.95;43.90;101471.75;7360459;19;19955;-61
2022/06/03 12:22:19;;;;;;;;;;;;;;;29.34;44.45;101460.25;7362038;19;20591;-61
2022/06/03 12:24:46;;;;;;;;;;;;;;;29.81;44.48;101471.28;7363535;19;19919;-58
2022/06/03 12:27:15;;;;;;;;;;;;;;;30.21;43.84;101466.59;7359024;19;19934;-59
2022/06/03 12:29:45;;;;;;;;;;;;;;;30.56;43.73;101475.88;7363165;19;19918;-59
2022/06/03 12:32:15;;;;;;;;;;;;;;;30.90;43.68;101473.53;7361706;19;19922;-59
2022/06/03 12:34:40;;;;;;;;;;;;;;;31.16;41.98;101478.22;7362516;19;20465;-59
2022/06/03 12:37:24;;;;;;;;;;;;;;;31.35;41.10;101471.91;7360720;19;19919;-59
2022/06/03 12:39:55;;;;;;;;;;;;;;;31.54;41.52;101477.19;7358215;19;19914;-59
2022/06/03 16:08:38;;;;;;;0.00;0.00;;;;;;;27.47;38.58;101567.44;7399807;19;20805;-65
2022/06/03 16:11:23;;;;;;;0.00;0.00;;;;;;;27.92;37.96;101545.91;7399549;19;20033;-63
2022/06/03 16:14:26;;;;;;;0.05;0.05;;;;;;;28.61;38.18;101567.88;7396010;19;20003;-63
2022/06/03 16:17:16;;;;;;;0.00;0.00;;;;;;;29.12;37.30;101568.91;7297814;19;2004586;-62
2022/06/03 16:20:00;;;;;;;0.00;0.00;;;;;;;29.53;35.48;101567.94;7400459;19;20023;-64
2022/06/03 16:22:37;;;;;;;0.00;0.00;;;;;;;30.08;35.59;101554.91;7399378;19;20014;-64
2022/06/03 16:25:24;;;;;;;0.10;0.10;;;;;;;30.51;35.59;101553.63;7400342;19;20006;-65
2022/06/03 16:28:29;;;;;;;0.10;0.10;;;;;;;30.91;35.43;101561.53;7400768;19;20018;-64
2022/06/03 16:30:59;;;;;;;0.10;0.10;;;;;;;31.16;32.22;101553.78;7295160;19;2004344;-64
2022/06/03 16:33:49;;;;;;;0.10;0.10;;;;;;;31.56;34.55;101556.19;7400565;19;20342;-64
2022/06/03 16:36:48;;;;;;;0.10;0.10;;;;;;;31.76;33.12;101552.34;7399704;19;20012;-65
2022/06/03 16:39:25;;;;;;;0.10;0.10;;;;;;;31.85;31.93;101528.19;7297016;19;2004143;-62
2022/06/03 16:42:06;;;;;;;0.10;0.10;;;;;;;32.13;32.05;101548.69;7398868;19;20633;-61
2022/06/03 16:44:43;;;;;;;0.00;0.00;;;;;;;32.17;31.16;101549.25;7399602;19;20152;-63
2022/06/03 16:47:26;;;;;;;;;;;;;;;32.36;34.66;101543.69;7399847;19;20086;-65
2022/06/03 16:50:07;;;;;;;0.10;0.10;;;;;;;32.30;30.42;101544.31;7401259;19;19922;-62
2022/06/03 16:52:39;;;;;;;0.00;0.00;;;;;;;32.27;30.60;101550.84;7398021;19;20542;-63
2022/06/03 16:55:27;;;;;;;0.00;0.00;;;;;;;32.21;30.25;101540.66;7399041;19;20437;-65
2022/06/03 16:58:06;;;;;;;0.10;0.10;;;;;;;32.06;31.25;101546.78;7395869;19;20548;-65
2022/06/03 17:00:32;;;;;;;0.00;0.00;;;;;;;31.84;29.18;101548.09;7396811;19;20014;-65